createdAt,value
2023-05-15T00:00:53.499Z,24.75
2023-05-15T00:01:53.497Z,24.74
2023-05-15T00:02:53.606Z,24.75
2023-05-15T00:03:53.548Z,24.77
2023-05-15T00:04:53.563Z,24.77
2023-05-15T00:05:53.502Z,24.78
2023-05-15T00:06:53.530Z,24.75
2023-05-15T00:07:53.524Z,24.75
2023-05-15T00:08:53.520Z,24.77
2023-05-15T00:09:53.523Z,24.75
2023-05-15T00:11:01.641Z,24.77
2023-05-15T00:11:53.537Z,24.74
2023-05-15T00:12:53.481Z,24.77
2023-05-15T00:13:53.459Z,24.75
2023-05-15T00:14:53.431Z,24.77
2023-05-15T00:15:53.445Z,24.77
2023-05-15T00:16:53.386Z,24.74
2023-05-15T00:17:53.489Z,24.77
2023-05-15T00:18:53.393Z,24.74
2023-05-15T00:19:53.321Z,24.71
2023-05-15T00:20:53.294Z,24.72
2023-05-15T00:21:53.281Z,24.72
2023-05-15T00:22:53.249Z,24.74
2023-05-15T00:23:53.229Z,24.75
2023-05-15T00:24:53.235Z,24.74
2023-05-15T00:25:53.184Z,24.72
2023-05-15T00:26:53.166Z,24.75
2023-05-15T00:27:53.165Z,24.74
2023-05-15T00:28:53.125Z,24.72
2023-05-15T00:29:53.094Z,24.74
2023-05-15T00:30:53.073Z,24.74
2023-05-15T00:31:53.095Z,24.72
2023-05-15T00:32:53.075Z,24.72
2023-05-15T00:33:53.012Z,24.71
2023-05-15T00:34:52.995Z,24.74
2023-05-15T00:35:52.960Z,24.75
2023-05-15T00:36:52.962Z,24.74
2023-05-15T00:37:52.929Z,24.74
2023-05-15T00:38:52.904Z,24.72
2023-05-15T00:39:52.879Z,24.74
2023-05-15T00:40:52.866Z,24.74
2023-05-15T00:41:52.844Z,24.72
2023-05-15T00:42:52.828Z,24.72
2023-05-15T00:43:52.883Z,24.71
2023-05-15T00:44:52.790Z,24.75
2023-05-15T00:45:52.789Z,24.71
2023-05-15T00:46:52.878Z,24.72
2023-05-15T00:47:52.947Z,24.71
2023-05-15T00:48:52.936Z,24.74
2023-05-15T00:49:52.999Z,24.72
2023-05-15T00:50:53.000Z,24.72
2023-05-15T00:51:53.049Z,24.71
2023-05-15T00:52:53.076Z,24.71
2023-05-15T00:53:53.133Z,24.71
2023-05-15T00:54:53.163Z,24.71
2023-05-15T00:55:53.210Z,24.72
2023-05-15T00:56:53.250Z,24.70
2023-05-15T00:57:53.298Z,24.71
2023-05-15T00:58:53.323Z,24.70
2023-05-15T00:59:53.389Z,24.70
2023-05-15T01:00:53.450Z,24.72
2023-05-15T01:01:53.509Z,24.72
2023-05-15T01:02:53.615Z,24.71
2023-05-15T01:03:53.541Z,24.72
2023-05-15T01:04:53.584Z,24.72
2023-05-15T01:05:53.628Z,24.72
2023-05-15T01:06:53.664Z,24.72
2023-05-15T01:07:53.692Z,24.71
2023-05-15T01:08:53.746Z,24.71
2023-05-15T01:09:53.784Z,24.74
2023-05-15T01:10:53.814Z,24.74
2023-05-15T01:11:53.857Z,24.71
2023-05-15T01:12:53.900Z,24.71
2023-05-15T01:13:53.946Z,24.71
2023-05-15T01:14:53.994Z,24.70
2023-05-15T01:15:54.071Z,24.71
2023-05-15T01:16:54.089Z,24.71
2023-05-15T01:17:54.172Z,24.70
2023-05-15T01:18:54.255Z,24.71
2023-05-15T01:19:54.556Z,24.71
2023-05-15T01:20:54.270Z,24.71
2023-05-15T01:21:54.318Z,24.70
2023-05-15T01:22:54.361Z,24.70
2023-05-15T01:23:54.408Z,24.72
2023-05-15T01:24:54.456Z,24.70
2023-05-15T01:25:54.509Z,24.71
2023-05-15T01:26:54.550Z,24.70
2023-05-15T01:27:54.605Z,24.70
2023-05-15T01:28:54.643Z,24.72
2023-05-15T01:29:54.689Z,24.71
2023-05-15T01:30:54.742Z,24.67
2023-05-15T01:31:54.859Z,24.72
2023-05-15T01:32:54.828Z,24.71
2023-05-15T01:33:54.880Z,24.70
2023-05-15T01:34:54.919Z,24.71
2023-05-15T01:35:54.967Z,24.71
2023-05-15T01:36:55.009Z,24.71
2023-05-15T01:37:55.052Z,24.71
2023-05-15T01:38:55.091Z,24.68
2023-05-15T01:39:55.140Z,24.72
2023-05-15T01:40:55.179Z,24.71
2023-05-15T01:41:55.231Z,24.71
2023-05-15T01:42:55.280Z,24.71
2023-05-15T01:43:55.333Z,24.71
2023-05-15T01:44:55.366Z,24.70
2023-05-15T01:45:55.425Z,24.70
2023-05-15T01:46:55.526Z,24.70
2023-05-15T01:47:55.553Z,24.71
2023-05-15T01:48:55.512Z,24.71
2023-05-15T01:49:55.552Z,24.70
2023-05-15T01:50:55.603Z,24.71
2023-05-15T01:51:55.636Z,24.70
2023-05-15T01:52:55.682Z,24.70
2023-05-15T01:53:55.724Z,24.71
2023-05-15T01:54:55.772Z,24.70
2023-05-15T01:55:55.811Z,24.70
2023-05-15T01:56:55.856Z,24.71
2023-05-15T01:57:55.898Z,24.71
2023-05-15T01:58:55.941Z,24.70
2023-05-15T01:59:55.981Z,24.70
2023-05-15T02:00:56.024Z,24.71
2023-05-15T02:01:56.149Z,24.68
2023-05-15T02:02:56.206Z,24.71
2023-05-15T02:03:56.233Z,24.68
2023-05-15T02:04:56.197Z,24.71
2023-05-15T02:05:56.246Z,24.70
2023-05-15T02:06:56.298Z,24.70
2023-05-15T02:07:56.338Z,24.71
2023-05-15T02:08:56.380Z,24.68
2023-05-15T02:09:56.419Z,24.71
2023-05-15T02:10:56.469Z,24.68
2023-05-15T02:11:56.511Z,24.71
2023-05-15T02:12:56.554Z,24.70
2023-05-15T02:13:56.600Z,24.68
2023-05-15T02:14:56.639Z,24.70
2023-05-15T02:15:56.720Z,24.68
2023-05-15T02:16:56.731Z,24.68
2023-05-15T02:17:56.867Z,24.70
2023-05-15T02:18:56.845Z,24.70
2023-05-15T02:19:56.896Z,24.70
2023-05-15T02:20:56.922Z,24.70
2023-05-15T02:21:56.971Z,24.68
2023-05-15T02:22:57.009Z,24.72
2023-05-15T02:23:57.047Z,24.71
2023-05-15T02:24:57.094Z,24.68
2023-05-15T02:25:57.130Z,24.71
2023-05-15T02:26:57.171Z,24.68
2023-05-15T02:27:57.216Z,24.68
2023-05-15T02:28:57.259Z,24.70
2023-05-15T02:29:57.298Z,24.70
2023-05-15T02:30:57.335Z,24.70
2023-05-15T02:31:57.412Z,24.67
2023-05-15T02:32:57.462Z,24.68
2023-05-15T02:33:57.479Z,24.68
2023-05-15T02:34:57.515Z,24.70
2023-05-15T02:35:57.596Z,24.70
2023-05-15T02:36:57.616Z,24.68
2023-05-15T02:37:57.652Z,24.67
2023-05-15T02:38:57.730Z,24.68
2023-05-15T02:39:57.751Z,24.68
2023-05-15T02:40:57.794Z,24.68
2023-05-15T02:41:57.833Z,24.70
2023-05-15T02:42:57.874Z,24.70
2023-05-15T02:43:57.918Z,24.67
2023-05-15T02:44:57.977Z,24.68
2023-05-15T02:45:58.062Z,24.68
2023-05-15T02:46:58.069Z,24.68
2023-05-15T02:47:58.149Z,24.67
2023-05-15T02:48:58.163Z,24.68
2023-05-15T02:49:58.204Z,24.67
2023-05-15T02:50:58.257Z,24.70
2023-05-15T02:51:58.322Z,24.68
2023-05-15T02:52:58.337Z,24.68
2023-05-15T02:53:58.384Z,24.68
2023-05-15T02:54:58.428Z,24.67
2023-05-15T02:55:58.533Z,24.70
2023-05-15T02:56:58.516Z,24.67
2023-05-15T02:57:58.567Z,24.67
2023-05-15T02:58:58.599Z,24.68
2023-05-15T02:59:58.641Z,24.68
2023-05-15T03:00:58.735Z,24.67
2023-05-15T03:01:58.738Z,24.68
2023-05-15T03:02:58.843Z,24.67
2023-05-15T03:03:58.919Z,24.67
2023-05-15T03:04:58.882Z,24.68
2023-05-15T03:05:58.947Z,24.65
2023-05-15T03:06:58.970Z,24.67
2023-05-15T03:07:59.044Z,24.70
2023-05-15T03:08:59.052Z,24.67
2023-05-15T03:09:59.100Z,24.67
2023-05-15T03:10:59.151Z,24.68
2023-05-15T03:11:59.204Z,24.67
2023-05-15T03:12:59.246Z,24.67
2023-05-15T03:13:59.298Z,24.67
2023-05-15T03:14:59.334Z,24.68
2023-05-15T03:15:59.383Z,24.68
2023-05-15T03:16:59.494Z,24.65
2023-05-15T03:17:59.488Z,24.67
2023-05-15T03:18:59.509Z,24.65
2023-05-15T03:19:59.469Z,24.67
2023-05-15T03:20:59.479Z,24.67
2023-05-15T03:21:59.496Z,24.67
2023-05-15T03:22:59.512Z,24.67
2023-05-15T03:23:59.557Z,24.67
2023-05-15T03:24:59.536Z,24.64
2023-05-15T03:25:59.595Z,24.67
2023-05-15T03:26:59.632Z,24.65
2023-05-15T03:27:59.679Z,24.67
2023-05-15T03:28:59.726Z,24.67
2023-05-15T03:29:59.772Z,24.65
2023-05-15T03:30:59.867Z,24.67
2023-05-15T03:31:59.885Z,24.68
2023-05-15T03:32:59.979Z,24.67
2023-05-15T03:33:59.966Z,24.65
2023-05-15T03:35:00.017Z,24.68
2023-05-15T03:36:00.456Z,24.65
2023-05-15T03:37:00.128Z,24.65
2023-05-15T03:38:00.159Z,24.67
2023-05-15T03:39:00.211Z,24.68
2023-05-15T03:40:00.301Z,24.67
2023-05-15T03:41:00.293Z,24.67
2023-05-15T03:42:00.342Z,24.67
2023-05-15T03:43:00.382Z,24.68
2023-05-15T03:44:00.441Z,24.67
2023-05-15T03:45:00.489Z,24.67
2023-05-15T03:46:00.543Z,24.65
2023-05-15T03:47:00.620Z,24.65
2023-05-15T03:48:00.731Z,24.65
2023-05-15T03:49:00.700Z,24.65
2023-05-15T03:50:00.760Z,24.67
2023-05-15T03:51:00.806Z,24.67
2023-05-15T03:52:00.860Z,24.65
2023-05-15T03:53:00.911Z,24.67
2023-05-15T03:54:00.961Z,24.67
2023-05-15T03:55:01.005Z,24.65
2023-05-15T03:56:01.083Z,24.67
2023-05-15T03:57:01.121Z,24.65
2023-05-15T03:58:01.219Z,24.67
2023-05-15T03:59:01.213Z,24.65
2023-05-15T04:00:01.286Z,24.65
2023-05-15T04:01:01.311Z,24.68
2023-05-15T04:02:04.329Z,24.67
2023-05-15T04:03:01.464Z,24.65
2023-05-15T04:04:01.328Z,24.67
2023-05-15T04:05:01.345Z,24.67
2023-05-15T04:06:01.307Z,24.65
2023-05-15T04:07:01.295Z,24.64
2023-05-15T04:08:01.282Z,24.65
2023-05-15T04:09:01.295Z,24.64
2023-05-15T04:10:01.372Z,24.64
2023-05-15T04:11:01.402Z,24.65
2023-05-15T04:12:01.475Z,24.65
2023-05-15T04:13:01.493Z,24.64
2023-05-15T04:14:01.541Z,24.65
2023-05-15T04:15:01.613Z,24.65
2023-05-15T04:16:01.665Z,24.64
2023-05-15T04:17:01.691Z,24.64
2023-05-15T04:18:01.790Z,24.64
2023-05-15T04:19:01.809Z,24.64
2023-05-15T04:20:01.846Z,24.65
2023-05-15T04:21:01.892Z,24.62
2023-05-15T04:22:01.954Z,24.65
2023-05-15T04:23:01.988Z,24.65
2023-05-15T04:24:02.029Z,24.64
2023-05-15T04:25:02.082Z,24.64
2023-05-15T04:26:02.134Z,24.64
2023-05-15T04:27:02.249Z,24.65
2023-05-15T04:28:02.276Z,24.64
2023-05-15T04:29:04.452Z,24.65
2023-05-15T04:30:02.264Z,24.65
2023-05-15T04:31:02.253Z,24.61
2023-05-15T04:32:02.263Z,24.65
2023-05-15T04:33:02.297Z,24.62
2023-05-15T04:34:02.209Z,24.62
2023-05-15T04:35:02.192Z,24.64
2023-05-15T04:36:02.183Z,24.62
2023-05-15T04:37:02.162Z,24.64
2023-05-15T04:38:02.164Z,24.64
2023-05-15T04:39:02.149Z,24.64
2023-05-15T04:40:02.125Z,24.64
2023-05-15T04:41:02.114Z,24.61
2023-05-15T04:42:02.109Z,24.62
2023-05-15T04:43:02.107Z,24.64
2023-05-15T04:44:02.105Z,24.64
2023-05-15T04:45:02.059Z,24.64
2023-05-15T04:46:02.134Z,24.62
2023-05-15T04:47:02.027Z,24.62
2023-05-15T04:48:02.068Z,24.62
2023-05-15T04:49:02.007Z,24.64
2023-05-15T04:50:02.027Z,24.64
2023-05-15T04:51:01.957Z,24.64
2023-05-15T04:52:01.957Z,24.65
2023-05-15T04:53:01.924Z,24.62
2023-05-15T04:54:01.962Z,24.65
2023-05-15T04:55:02.036Z,24.64
2023-05-15T04:56:02.074Z,24.62
2023-05-15T04:57:02.126Z,24.64
2023-05-15T04:58:02.173Z,24.64
2023-05-15T04:59:02.229Z,24.61
2023-05-15T05:00:02.337Z,24.61
2023-05-15T05:01:04.203Z,24.64
2023-05-15T05:02:02.385Z,24.62
2023-05-15T05:03:02.323Z,24.62
2023-05-15T05:04:02.326Z,24.64
2023-05-15T05:05:02.272Z,24.64
2023-05-15T05:06:02.284Z,24.62
2023-05-15T05:07:02.256Z,24.62
2023-05-15T05:08:02.237Z,24.64
2023-05-15T05:09:02.233Z,24.62
2023-05-15T05:10:02.230Z,24.64
2023-05-15T05:11:02.199Z,24.61
2023-05-15T05:12:02.242Z,24.61
2023-05-15T05:13:02.180Z,24.65
2023-05-15T05:14:02.162Z,24.61
2023-05-15T05:15:02.143Z,24.62
2023-05-15T05:16:02.226Z,24.62
2023-05-15T05:17:02.135Z,24.62
2023-05-15T05:18:02.167Z,24.62
2023-05-15T05:19:02.114Z,24.61
2023-05-15T05:20:02.070Z,24.61
2023-05-15T05:21:02.059Z,24.61
2023-05-15T05:22:02.244Z,24.62
2023-05-15T05:23:02.050Z,24.62
2023-05-15T05:24:02.060Z,24.61
2023-05-15T05:25:02.088Z,24.62
2023-05-15T05:26:04.110Z,24.62
2023-05-15T05:27:02.241Z,24.64
2023-05-15T05:28:02.108Z,24.60
2023-05-15T05:29:02.099Z,24.62
2023-05-15T05:30:02.087Z,24.61
2023-05-15T05:31:02.158Z,24.62
2023-05-15T05:32:02.325Z,24.62
2023-05-15T05:33:02.134Z,24.58
2023-05-15T05:34:02.037Z,24.60
2023-05-15T05:35:02.055Z,24.61
2023-05-15T05:36:02.007Z,24.61
2023-05-15T05:37:02.252Z,24.62
2023-05-15T05:38:01.982Z,24.64
2023-05-15T05:39:02.247Z,24.61
2023-05-15T05:40:01.972Z,24.61
2023-05-15T05:41:01.948Z,24.61
2023-05-15T05:42:02.245Z,24.60
2023-05-15T05:43:01.930Z,24.61
2023-05-15T05:44:01.939Z,24.58
2023-05-15T05:45:01.901Z,24.60
2023-05-15T05:46:01.900Z,24.61
2023-05-15T05:47:02.296Z,24.64
2023-05-15T05:48:01.944Z,24.60
2023-05-15T05:49:01.855Z,24.62
2023-05-15T05:50:01.957Z,24.64
2023-05-15T05:51:01.971Z,24.60
2023-05-15T05:52:02.251Z,24.61
2023-05-15T05:53:02.073Z,24.62
2023-05-15T05:54:02.121Z,24.61
2023-05-15T05:55:02.177Z,24.61
2023-05-15T05:56:02.227Z,24.62
2023-05-15T05:58:04.772Z,24.65
2023-05-15T05:59:03.247Z,24.62
2023-05-15T06:00:17.934Z,24.64
2023-05-15T06:01:05.530Z,24.65
2023-05-15T06:04:05.702Z,24.68
2023-05-15T06:05:02.181Z,24.67
2023-05-15T06:06:17.762Z,24.65
2023-05-15T06:07:05.388Z,24.65
2023-05-15T06:08:02.182Z,24.67
2023-05-15T06:09:02.160Z,24.65
2023-05-15T06:10:02.143Z,24.64
2023-05-15T06:11:02.112Z,24.65
2023-05-15T06:12:02.552Z,24.65
2023-05-15T06:13:02.086Z,24.65
2023-05-15T06:14:02.082Z,24.62
2023-05-15T06:15:02.088Z,24.64
2023-05-15T06:16:02.036Z,24.61
2023-05-15T06:17:02.308Z,24.61
2023-05-15T06:18:02.061Z,24.61
2023-05-15T06:19:02.084Z,24.61
2023-05-15T06:20:02.130Z,24.58
2023-05-15T06:21:01.970Z,24.61
2023-05-15T06:22:02.268Z,24.58
2023-05-15T06:23:02.273Z,24.58
2023-05-15T06:24:01.949Z,24.58
2023-05-15T06:25:01.923Z,24.58
2023-05-15T06:26:01.908Z,24.58
2023-05-15T06:27:02.262Z,24.60
2023-05-15T06:28:01.905Z,24.54
2023-05-15T06:29:02.559Z,24.60
2023-05-15T06:30:01.998Z,24.58
2023-05-15T06:31:02.069Z,24.57
2023-05-15T06:32:02.281Z,24.60
2023-05-15T06:33:02.283Z,24.55
2023-05-15T06:34:02.211Z,24.57
2023-05-15T06:35:02.271Z,24.57
2023-05-15T06:36:02.369Z,24.55
2023-05-15T06:37:02.771Z,24.55
2023-05-15T06:38:02.405Z,24.55
2023-05-15T06:39:02.480Z,24.55
2023-05-15T06:40:02.524Z,24.57
2023-05-15T06:41:02.776Z,24.55
2023-05-15T06:42:02.794Z,24.55
2023-05-15T06:43:02.711Z,24.55
2023-05-15T06:44:02.770Z,24.55
2023-05-15T06:45:02.877Z,24.55
2023-05-15T06:46:02.917Z,24.55
2023-05-15T06:47:06.651Z,24.55
2023-05-15T06:48:02.992Z,24.55
2023-05-15T06:49:02.904Z,24.58
2023-05-15T06:50:10.298Z,24.54
2023-05-15T06:51:02.901Z,24.53
2023-05-15T06:52:06.517Z,24.55
2023-05-15T06:53:02.855Z,24.57
2023-05-15T06:54:03.275Z,24.57
2023-05-15T06:55:02.826Z,24.55
2023-05-15T06:56:02.813Z,24.55
2023-05-15T06:57:03.278Z,24.54
2023-05-15T06:58:02.789Z,24.55
2023-05-15T06:59:02.794Z,24.57
2023-05-15T07:00:02.791Z,24.55
2023-05-15T07:01:02.786Z,24.54
2023-05-15T07:02:02.828Z,24.54
2023-05-15T07:03:02.820Z,24.55
2023-05-15T07:05:02.777Z,24.55
2023-05-15T07:06:02.790Z,24.53
2023-05-15T07:07:02.713Z,24.54
2023-05-15T07:08:02.933Z,24.53
2023-05-15T07:09:02.716Z,24.55
2023-05-15T07:10:02.692Z,24.53
2023-05-15T07:11:02.782Z,24.54
2023-05-15T07:12:02.673Z,24.53
2023-05-15T07:13:02.656Z,24.53
2023-05-15T07:14:02.643Z,24.54
2023-05-15T07:15:02.829Z,24.54
2023-05-15T07:16:02.782Z,24.54
2023-05-15T07:17:02.662Z,24.54
2023-05-15T07:18:02.745Z,24.54
2023-05-15T07:19:02.676Z,24.54
2023-05-15T07:20:02.622Z,24.54
2023-05-15T07:21:02.787Z,24.53
2023-05-15T07:22:05.778Z,24.54
2023-05-15T07:23:02.786Z,24.57
2023-05-15T07:24:02.591Z,24.54
2023-05-15T07:25:05.742Z,24.53
2023-05-15T07:26:03.290Z,24.53
2023-05-15T07:27:02.526Z,24.55
2023-05-15T07:28:02.880Z,24.53
2023-05-15T07:29:02.797Z,24.55
2023-05-15T07:30:02.688Z,24.55
2023-05-15T07:31:06.345Z,24.55
2023-05-15T07:32:02.788Z,24.55
2023-05-15T07:33:02.496Z,24.53
2023-05-15T07:34:02.436Z,24.51
2023-05-15T07:35:02.463Z,24.51
2023-05-15T07:36:02.897Z,24.53
2023-05-15T07:37:09.862Z,24.55
2023-05-15T07:38:02.425Z,24.58
2023-05-15T07:39:02.374Z,24.61
2023-05-15T07:40:02.626Z,24.62
2023-05-15T07:41:02.835Z,24.67
2023-05-15T07:42:02.798Z,24.68
2023-05-15T07:43:06.037Z,24.75
2023-05-15T07:44:03.565Z,24.81
2023-05-15T07:45:02.329Z,24.83
2023-05-15T07:46:02.356Z,24.88
2023-05-15T07:47:05.468Z,24.96
2023-05-15T07:48:02.340Z,25.00
2023-05-15T07:49:02.321Z,25.03
2023-05-15T07:50:02.225Z,25.05
2023-05-15T07:51:02.170Z,25.05
2023-05-15T07:52:02.141Z,25.10
2023-05-15T07:53:03.328Z,25.13
2023-05-15T07:54:02.099Z,25.19
2023-05-15T07:55:02.138Z,25.19
2023-05-15T07:56:02.102Z,25.22
2023-05-15T07:57:02.294Z,25.22
2023-05-15T07:58:02.297Z,25.23
2023-05-15T07:59:09.600Z,25.19
2023-05-15T08:00:09.453Z,25.22
2023-05-15T08:01:17.623Z,25.23
2023-05-15T08:02:02.024Z,25.22
2023-05-15T08:03:02.387Z,25.19
2023-05-15T08:04:02.013Z,25.19
2023-05-15T08:05:01.898Z,25.17
2023-05-15T08:06:01.903Z,25.15
2023-05-15T08:07:01.889Z,25.15
2023-05-15T08:08:03.340Z,25.15
2023-05-15T08:09:01.886Z,25.12
2023-05-15T08:10:01.808Z,25.13
2023-05-15T08:11:05.061Z,25.09
2023-05-15T08:12:01.800Z,25.07
2023-05-15T08:13:02.018Z,25.06
2023-05-15T08:14:01.753Z,25.07
2023-05-15T08:15:01.695Z,25.06
2023-05-15T08:16:01.705Z,25.09
2023-05-15T08:17:01.689Z,25.05
2023-05-15T08:18:01.943Z,25.06
2023-05-15T08:19:01.744Z,25.07
2023-05-15T08:20:04.830Z,25.05
2023-05-15T08:21:04.904Z,25.06
2023-05-15T08:22:01.543Z,25.06
2023-05-15T08:23:01.512Z,25.05
2023-05-15T08:24:01.498Z,25.06
2023-05-15T08:25:01.479Z,25.05
2023-05-15T08:26:02.454Z,25.03
2023-05-15T08:27:01.420Z,25.06
2023-05-15T08:28:01.832Z,25.06
2023-05-15T08:29:01.448Z,25.07
2023-05-15T08:30:02.813Z,25.07
2023-05-15T08:31:01.398Z,25.07
2023-05-15T08:32:01.331Z,25.06
2023-05-15T08:33:01.367Z,25.06
2023-05-15T08:34:01.297Z,25.09
2023-05-15T08:35:01.334Z,25.09
2023-05-15T08:36:01.330Z,25.09
2023-05-15T08:37:01.265Z,25.12
2023-05-15T08:38:01.237Z,25.10
2023-05-15T08:39:01.397Z,25.13
2023-05-15T08:40:01.321Z,25.12
2023-05-15T08:41:01.207Z,25.12
2023-05-15T08:42:01.200Z,25.15
2023-05-15T08:43:01.198Z,25.13
2023-05-15T08:44:02.227Z,25.13
2023-05-15T08:45:01.321Z,25.16
2023-05-15T08:47:08.556Z,25.12
2023-05-15T08:49:01.197Z,25.22
2023-05-15T08:50:01.096Z,25.26
2023-05-15T08:51:01.070Z,25.26
2023-05-15T08:52:01.062Z,25.29
2023-05-15T08:53:01.324Z,25.33
2023-05-15T08:54:00.997Z,25.36
2023-05-15T08:55:01.003Z,25.38
2023-05-15T08:56:00.962Z,25.43
2023-05-15T08:57:00.950Z,25.43
2023-05-15T08:58:01.321Z,25.44
2023-05-15T08:59:32.757Z,25.50
2023-05-15T09:00:00.890Z,25.51
2023-05-15T09:01:00.859Z,25.51
2023-05-15T09:02:01.199Z,25.55
2023-05-15T09:03:01.923Z,25.54
2023-05-15T09:04:00.846Z,25.57
2023-05-15T09:05:00.831Z,25.58
2023-05-15T09:06:01.746Z,25.60
2023-05-15T09:07:00.731Z,25.62
2023-05-15T09:08:00.709Z,25.64
2023-05-15T09:09:16.317Z,25.64
2023-05-15T09:10:00.821Z,25.67
2023-05-15T09:11:00.642Z,25.67
2023-05-15T09:12:00.663Z,25.68
2023-05-15T09:13:00.598Z,25.71
2023-05-15T09:14:00.571Z,25.72
2023-05-15T09:15:00.880Z,25.75
2023-05-15T09:16:00.530Z,25.75
2023-05-15T09:17:00.564Z,25.77
2023-05-15T09:18:00.513Z,25.77
2023-05-15T09:19:00.726Z,25.79
2023-05-15T09:20:00.830Z,25.81
2023-05-15T09:21:00.431Z,25.82
2023-05-15T09:22:00.380Z,25.82
2023-05-15T09:23:00.829Z,25.84
2023-05-15T09:24:00.333Z,25.84
2023-05-15T09:25:00.333Z,25.87
2023-05-15T09:26:00.363Z,25.87
2023-05-15T09:27:00.250Z,25.87
2023-05-15T09:28:00.245Z,25.89
2023-05-15T09:29:00.192Z,25.91
2023-05-15T09:30:00.194Z,25.91
2023-05-15T09:31:00.373Z,25.93
2023-05-15T09:32:00.174Z,25.95
2023-05-15T09:33:01.112Z,25.95
2023-05-15T09:34:00.388Z,25.98
2023-05-15T09:35:00.035Z,26.00
2023-05-15T09:36:00.030Z,25.99
2023-05-15T09:37:01.058Z,26.00
2023-05-15T09:38:00.340Z,26.00
2023-05-15T09:39:00.111Z,26.08
2023-05-15T09:40:00.217Z,26.08
2023-05-15T09:41:00.171Z,26.08
2023-05-15T09:42:00.182Z,26.06
2023-05-15T09:43:00.807Z,26.03
2023-05-15T09:44:00.235Z,26.02
2023-05-15T09:45:00.252Z,26.02
2023-05-15T09:46:00.403Z,25.99
2023-05-15T09:47:00.513Z,25.98
2023-05-15T09:48:00.990Z,25.99
2023-05-15T09:49:00.406Z,25.98
2023-05-15T09:50:00.455Z,26.00
2023-05-15T09:51:00.493Z,25.99
2023-05-15T09:52:00.533Z,26.00
2023-05-15T09:53:00.570Z,26.03
2023-05-15T09:54:00.597Z,26.06
2023-05-15T09:55:00.656Z,26.06
2023-05-15T09:56:00.661Z,26.06
2023-05-15T09:57:00.708Z,26.06
2023-05-15T09:58:00.847Z,26.09
2023-05-15T09:59:00.787Z,26.09
2023-05-15T10:00:00.773Z,26.10
2023-05-15T10:01:00.830Z,26.10
2023-05-15T10:02:00.908Z,26.13
2023-05-15T10:03:01.976Z,26.12
2023-05-15T10:04:00.861Z,26.16
2023-05-15T10:05:00.898Z,26.13
2023-05-15T10:06:00.970Z,26.16
2023-05-15T10:07:00.935Z,26.16
2023-05-15T10:08:00.928Z,26.19
2023-05-15T10:09:00.944Z,26.17
2023-05-15T10:10:00.961Z,26.17
2023-05-15T10:11:01.406Z,26.19
2023-05-15T10:12:00.985Z,26.23
2023-05-15T10:13:01.347Z,26.17
2023-05-15T10:14:01.008Z,26.20
2023-05-15T10:15:01.250Z,26.23
2023-05-15T10:16:01.094Z,26.23
2023-05-15T10:17:01.053Z,26.25
2023-05-15T10:18:01.384Z,26.25
2023-05-15T10:19:02.869Z,26.27
2023-05-15T10:20:01.051Z,26.29
2023-05-15T10:21:01.041Z,26.26
2023-05-15T10:22:01.018Z,26.26
2023-05-15T10:23:01.356Z,26.27
2023-05-15T10:24:01.357Z,26.29
2023-05-15T10:25:00.916Z,26.30
2023-05-15T10:26:00.887Z,26.32
2023-05-15T10:27:00.862Z,26.27
2023-05-15T10:28:00.828Z,26.30
2023-05-15T10:29:00.858Z,26.32
2023-05-15T10:30:00.762Z,26.32
2023-05-15T10:31:00.870Z,26.34
2023-05-15T10:32:00.694Z,26.36
2023-05-15T10:33:00.821Z,26.39
2023-05-15T10:34:00.638Z,26.40
2023-05-15T10:35:00.636Z,26.42
2023-05-15T10:36:00.616Z,26.40
2023-05-15T10:37:00.558Z,26.40
2023-05-15T10:38:00.518Z,26.42
2023-05-15T10:39:00.480Z,26.42
2023-05-15T10:40:01.463Z,26.43
2023-05-15T10:41:15.973Z,26.42
2023-05-15T10:42:00.860Z,26.43
2023-05-15T10:43:00.392Z,26.43
2023-05-15T10:44:00.326Z,26.44
2023-05-15T10:45:00.472Z,26.43
2023-05-15T10:46:00.266Z,26.42
2023-05-15T10:47:00.278Z,26.43
2023-05-15T10:48:00.249Z,26.43
2023-05-15T10:49:00.367Z,26.43
2023-05-15T10:50:00.181Z,26.44
2023-05-15T10:51:00.394Z,26.47
2023-05-15T10:52:00.030Z,26.43
2023-05-15T10:53:00.002Z,26.43
2023-05-15T10:54:00.678Z,26.47
2023-05-15T10:54:59.935Z,26.46
2023-05-15T10:56:00.423Z,26.47
2023-05-15T10:57:00.850Z,26.48
2023-05-15T10:57:59.826Z,26.47
2023-05-15T10:58:59.785Z,26.47
2023-05-15T10:59:59.746Z,26.47
2023-05-15T11:00:59.987Z,26.46
2023-05-15T11:01:59.671Z,26.48
2023-05-15T11:02:59.684Z,26.48
2023-05-15T11:03:59.900Z,26.46
2023-05-15T11:04:59.569Z,26.47
2023-05-15T11:05:59.523Z,26.48
2023-05-15T11:06:59.490Z,26.47
2023-05-15T11:07:59.409Z,26.50
2023-05-15T11:08:59.380Z,26.53
2023-05-15T11:09:59.332Z,26.51
2023-05-15T11:10:59.286Z,26.51
2023-05-15T11:11:59.247Z,26.53
2023-05-15T11:12:59.218Z,26.53
2023-05-15T11:13:59.367Z,26.55
2023-05-15T11:14:59.120Z,26.53
2023-05-15T11:15:59.077Z,26.50
2023-05-15T11:16:59.063Z,26.51
2023-05-15T11:17:59.003Z,26.53
2023-05-15T11:18:59.398Z,26.53
2023-05-15T11:19:58.995Z,26.51
2023-05-15T11:20:59.369Z,26.53
2023-05-15T11:21:58.993Z,26.54
2023-05-15T11:22:59.064Z,26.51
2023-05-15T11:23:58.997Z,26.51
2023-05-15T11:24:59.377Z,26.50
2023-05-15T11:25:59.392Z,26.48
2023-05-15T11:26:59.249Z,26.48
2023-05-15T11:27:58.896Z,26.47
2023-05-15T11:28:58.872Z,26.47
2023-05-15T11:29:58.835Z,26.48
2023-05-15T11:30:58.856Z,26.44
2023-05-15T11:31:58.771Z,26.46
2023-05-15T11:32:59.005Z,26.42
2023-05-15T11:33:58.991Z,26.43
2023-05-15T11:34:58.878Z,26.39
2023-05-15T11:35:58.743Z,26.42
2023-05-15T11:36:58.875Z,26.40
2023-05-15T11:37:58.761Z,26.36
2023-05-15T11:38:58.768Z,26.33
2023-05-15T11:39:58.889Z,26.34
2023-05-15T11:40:58.833Z,26.30
2023-05-15T11:42:00.973Z,26.32
2023-05-15T11:42:58.737Z,26.29
2023-05-15T11:43:58.895Z,26.29
2023-05-15T11:44:58.696Z,26.29
2023-05-15T11:45:58.709Z,26.26
2023-05-15T11:46:58.665Z,26.23
2023-05-15T11:47:58.912Z,26.25
2023-05-15T11:49:00.170Z,26.23
2023-05-15T11:49:58.486Z,26.26
2023-05-15T11:50:58.488Z,26.25
2023-05-15T11:51:58.408Z,26.27
2023-05-15T11:52:58.368Z,26.26
2023-05-15T11:53:58.394Z,26.27
2023-05-15T11:54:59.309Z,26.26
2023-05-15T11:55:58.273Z,26.23
2023-05-15T11:56:58.201Z,26.25
2023-05-15T11:57:58.189Z,26.27
2023-05-15T11:58:58.120Z,26.25
2023-05-15T11:59:58.081Z,26.25
2023-05-15T12:00:58.062Z,26.23
2023-05-15T12:01:58.023Z,26.23
2023-05-15T12:02:58.112Z,26.23
2023-05-15T12:03:58.768Z,26.22
2023-05-15T12:04:57.933Z,26.25
2023-05-15T12:05:59.992Z,26.25
2023-05-15T12:06:57.845Z,26.26
2023-05-15T12:07:57.793Z,26.25
2023-05-15T12:08:57.910Z,26.26
2023-05-15T12:09:57.715Z,26.25
2023-05-15T12:10:57.705Z,26.26
2023-05-15T12:11:57.659Z,26.25
2023-05-15T12:12:57.594Z,26.22
2023-05-15T12:13:57.897Z,26.23
2023-05-15T12:14:57.523Z,26.26
2023-05-15T12:15:57.482Z,26.23
2023-05-15T12:16:57.478Z,26.25
2023-05-15T12:17:57.480Z,26.23
2023-05-15T12:18:57.619Z,26.25
2023-05-15T12:19:57.325Z,26.27
2023-05-15T12:20:57.300Z,26.30
2023-05-15T12:21:57.255Z,26.34
2023-05-15T12:22:57.219Z,26.36
2023-05-15T12:24:07.258Z,26.34
2023-05-15T12:24:57.142Z,26.34
2023-05-15T12:25:57.093Z,26.39
2023-05-15T12:26:57.719Z,26.39
2023-05-15T12:27:57.012Z,26.39
2023-05-15T12:28:57.407Z,26.42
2023-05-15T12:29:56.938Z,26.43
2023-05-15T12:30:56.892Z,26.43
2023-05-15T12:31:56.880Z,26.44
2023-05-15T12:32:56.855Z,26.47
2023-05-15T12:33:56.784Z,26.48
2023-05-15T12:34:56.744Z,26.50
2023-05-15T12:36:00.814Z,26.51
2023-05-15T12:36:56.662Z,26.53
2023-05-15T12:37:56.627Z,26.54
2023-05-15T12:38:56.902Z,26.55
2023-05-15T12:39:56.547Z,26.54
2023-05-15T12:40:56.511Z,26.53
2023-05-15T12:41:56.466Z,26.57
2023-05-15T12:42:56.475Z,26.58
2023-05-15T12:43:56.396Z,26.58
2023-05-15T12:44:56.411Z,26.58
2023-05-15T12:45:56.405Z,26.58
2023-05-15T12:46:56.267Z,26.60
2023-05-15T12:47:56.260Z,26.64
2023-05-15T12:48:56.199Z,26.61
2023-05-15T12:49:56.409Z,26.61
2023-05-15T12:50:56.136Z,26.64
2023-05-15T12:51:56.090Z,26.64
2023-05-15T12:52:56.031Z,26.64
2023-05-15T12:53:56.457Z,26.64
2023-05-15T12:54:56.442Z,26.65
2023-05-15T12:55:55.912Z,26.65
2023-05-15T12:56:57.554Z,26.67
2023-05-15T12:57:55.812Z,26.65
2023-05-15T12:58:55.798Z,26.67